Petteway, Texas
Current Conditions -  °F | °C
As of 2:15 AM on Sunday 21 Dec 2014 (Local Time) from KLHB Reporting Station
Overcast Overcast  
Wind Chill: 47°   Ceiling: 1400
Heat Index: 47°   Visibility: 7mi
Dew Point: 45°   Wind: 0mph
Humidity: 93%   Direction: NA
Pressure: 30.18"   Gusts: NA
Location:  31.1274°N, 96.6627°W
Report Text: KLHB 210815Z AUTO 00000KT 7SM OVC014 09/07 A3018 RMK AO2 T00850074
Loading
Personal Weather Stations






























Interactive Weather Map New forecast layout! Learn more

10-Day Weather Forecast

Advertisements
Track Severe Weather on mobile